Flight Track Log - Related Links

Times and Time Zones

All times are in EDT time to prevent confusion due to time zone crossing. See the AWI3725 flight status page for this flight to view local times or setup timezone preferences in your user account.

Time Position Orientation Groundspeed Altitude Reporting Facility
EDT Latitude Longitude Course Direction KTS MPH feet Rate Location/Type
Thu 12:58:44 PM 44.8331 -68.8692 221° Southwest 154 177 2,700  Level Boston Center
Thu 12:59:45 PM 44.8042 -68.9464 242° Southwest 239 275 4,800 2,439 Climbing Boston Center
Thu 01:00:47 PM 44.7286 -69.0408 222° Southwest 291 335 7,700 2,829 Climbing Boston Center
Thu 01:01:48 PM 44.6631 -69.1217 221° Southwest 303 349 10,600 2,557 Climbing Boston Center
Thu 01:02:49 PM 44.5964 -69.2031 221° Southwest 308 354 12,900 2,195 Climbing Boston Center
Thu 01:03:51 PM 44.5264 -69.2886 221° Southwest 327 376 15,100 2,000 Climbing Boston Center
Thu 01:04:52 PM 44.4558 -69.3772 222° Southwest 331 381 17,000 1,820 Climbing Boston Center
Thu 01:05:53 PM 44.3794 -69.4683 220° Southwest 352 405 18,800 1,623 Climbing Boston Center
Thu 01:06:00 PM 44.2267 -69.5764 221° Southwest  Level FlightAware Approximate
Thu 01:06:54 PM 44.3028 -69.5628 221° Southwest 360 414 20,300  Level Boston Center
Thu 01:07:56 PM 44.2231 -69.6600 221° Southwest 372 428 21,700 1,268 Climbing Boston Center
Thu 01:08:57 PM 44.1433 -69.7578 221° Southwest 377 434 22,900 1,230 Climbing Boston Center
Thu 01:09:58 PM 44.0619 -69.8547 221° Southwest 379 436 24,200 1,073 Climbing Boston Center
Thu 01:11:00 PM 43.9803 -69.9536 221° Southwest 382 440 25,100 878 Climbing Boston Center
Thu 01:12:01 PM 43.8992 -70.0544 222° Southwest 384 442 26,000 836 Climbing Boston Center
Thu 01:13:02 PM 43.8133 -70.1572 221° Southwest 399 459 26,800 732 Climbing Boston Center
Thu 01:14:04 PM 43.7256 -70.2569 219° Southwest 404 465 27,500 585 Climbing Boston Center
Thu 01:15:05 PM 43.6375 -70.3592 220° Southwest 410 472 28,000 738 Climbing Boston Center
Thu 01:16:06 PM 43.5489 -70.4647 221° Southwest 413 475 29,000 780 Climbing Boston Center
Thu 01:17:08 PM 43.4597 -70.5681 220° Southwest 415 478 29,600 488 Climbing Boston Center
Thu 01:18:09 PM 43.3425 -70.6661 211° Southwest 440 506 30,000 195 Climbing Boston Center
Thu 01:19:11 PM 43.2306 -70.7386 205° Southwest 445 512 30,000  Level Boston Center
Thu 01:20:12 PM 43.1147 -70.8111 205° Southwest 459 528 30,000  Level Boston Center
Thu 01:21:14 PM 42.9922 -70.8756 201° Southwest 468 539 30,000  Level Boston Center
Thu 01:22:15 PM 42.8672 -70.9358 199° South 476 548 30,000  Level Boston Center
Thu 01:23:17 PM 42.7389 -70.9994 200° South 486 559 30,000  Level Boston Center
Thu 01:24:18 PM 42.5836 -71.0739 199° South 493 567 30,000  Level Boston Center
Thu 01:25:20 PM 42.5042 -71.1911 227° Southwest 430 495 30,000  Level Boston Center
Thu 01:26:21 PM 42.4528 -71.3283 243° Southwest 411 473 30,000  Level Boston Center
Thu 01:27:23 PM 42.4019 -71.4664 244° Southwest 411 473 30,000  Level Boston Center
Thu 01:28:24 PM 42.3481 -71.6097 243° Southwest 413 475 30,000  Level Boston Center
Thu 01:29:26 PM 42.2964 -71.7503 244° Southwest 416 479 30,000  Level Boston Center
Thu 01:30:28 PM 42.2447 -71.8906 244° Southwest 416 479 30,000  Level Boston Center
Thu 01:31:29 PM 42.1914 -72.0303 243° Southwest 416 479 30,000  Level Boston Center
Thu 01:32:31 PM 42.1397 -72.1692 243° Southwest 416 479 30,000  Level Boston Center
Thu 01:33:32 PM 42.0753 -72.3347 242° Southwest 416 479 30,000  Level Boston Center
Thu 01:34:34 PM 42.0231 -72.4731 243° Southwest 414 476 30,000  Level Boston Center
Thu 01:35:35 PM 41.9703 -72.6111 243° Southwest 414 476 30,000  Level Boston Center
Thu 01:36:37 PM 41.9025 -72.7397 235° Southwest 430 495 30,000  Level Boston Center
Thu 01:37:38 PM 41.8167 -72.8572 226° Southwest 439 505 30,000  Level Boston Center
Thu 01:38:40 PM 41.7300 -72.9756 226° Southwest 441 507 30,000  Level Boston Center
Thu 01:39:41 PM 41.6447 -73.0906 225° Southwest 439 505 30,000  Level Boston Center
Thu 01:40:42 PM 41.5589 -73.2067 225° Southwest 439 505 30,000 -49 Level Boston Center
Thu 01:41:44 PM 41.4708 -73.3247 225° Southwest 438 504 29,900 -532 Descending Boston Center
Thu 01:42:46 PM 41.3844 -73.4425 226° Southwest 442 509 28,900 -927 Descending Boston Center
Thu 01:43:47 PM 41.2956 -73.5619 225° Southwest 454 522 28,000 -443 Descending Boston Center
Thu 01:44:48 PM 41.2031 -73.7128 231° Southwest 442 509 28,000  Level Boston Center
Thu 01:45:50 PM 41.1292 -73.8369 232° Southwest 434 499 28,000  Level Boston Center
Thu 01:46:51 PM 41.0558 -73.9594 232° Southwest 430 495 28,000  Level Boston Center
Thu 01:47:53 PM 40.9828 -74.0817 232° Southwest 428 493 28,000  Level Boston Center
Thu 01:48:54 PM 40.9117 -74.2019 232° Southwest 425 489 28,000  Level Boston Center
Thu 01:49:56 PM 40.8392 -74.3222 231° Southwest 424 488 28,000  Level Boston Center
Thu 01:50:57 PM 40.7589 -74.4511 231° Southwest 422 486 28,000 -188 Level Boston Center
Thu 01:52:04 PM 40.6750 -74.5881 231° Southwest 430 495 27,600 -656 Descending New York Center
Thu 01:53:05 PM 40.6044 -74.7072 232° Southwest 425 489 26,600 -984 Descending New York Center
Thu 01:54:06 PM 40.5342 -74.8125 229° Southwest 411 473 25,600 -992 Descending New York Center
Thu 01:55:06 PM 40.4661 -74.9094 227° Southwest 391 450 24,600 -1,017 Descending New York Center
Thu 01:56:04 PM 40.3958 -75.0114 228° Southwest 386 444 23,600 -1,008 Descending New York Center
Thu 01:57:05 PM 40.3258 -75.1050 226° Southwest 381 438 22,600 -787 Descending New York Center
Thu 01:58:06 PM 40.2553 -75.2067 228° Southwest 381 438 22,000 -298 Descending New York Center
Thu 01:59:06 PM 40.1892 -75.2978 226° Southwest 371 427 22,000  Level New York Center
Thu 02:00:05 PM 40.1186 -75.3961 227° Southwest 366 421 22,000  Level New York Center
Thu 02:01:06 PM 40.0481 -75.4944 227° Southwest 372 428 22,000  Level New York Center
Thu 02:02:06 PM 39.9731 -75.5978 227° Southwest 378 435 22,000  Level New York Center
Thu 02:03:04 PM 39.8978 -75.7064 228° Southwest 389 448 22,000 -800 Level New York Center
Thu 02:04:06 PM 39.8306 -75.8150 231° Southwest 401 461 20,400 -1,650 Descending New York Center
Thu 02:05:04 PM 39.7636 -75.9183 230° Southwest 385 443 18,700 -1,563 Descending New York Center
Thu 02:06:05 PM 39.7006 -76.0189 231° Southwest 373 429 17,300 -1,475 Descending New York Center
Thu 02:07:06 PM 39.6356 -76.1247 231° Southwest 368 423 15,700 -1,641 Descending New York Center
Thu 02:08:02 PM 39.5803 -76.2172 232° Southwest 358 412 14,100 -1,613 Descending Washington Center
Thu 02:09:05 PM 39.5183 -76.3139 230° Southwest 354 407 12,500 -1,016 Descending Washington Center
Thu 02:10:06 PM 39.4564 -76.4100 230° Southwest 352 405 12,000 -242 Descending Washington Center
Thu 02:11:09 PM 39.3753 -76.4853 216° Southwest 359 413 12,000 -119 Level Washington Center
Thu 02:11:47 PM 39.3000 -76.5500 214° Southwest 347 399 11,800 -857 Descending Potomac TRACON
Thu 02:12:47 PM 39.2333 -76.6167 218° Southwest 344 396 10,600 -900 Descending Potomac TRACON
Thu 02:13:47 PM 39.1667 -76.6667 210° Southwest 291 335 10,000 -300 Descending Potomac TRACON
Thu 02:14:47 PM 39.1000 -76.7333 218° Southwest 242 278 10,000  Level Potomac TRACON
Thu 02:15:54 PM 39.0500 -76.8000 226° Southwest 246 283 10,000  Level Potomac TRACON
Thu 02:16:48 PM 39.0000 -76.8500 218° Southwest 242 278 10,000 -276 Level Potomac TRACON
Thu 02:17:21 PM 38.9861 -76.8831 242° Southwest 243 280 9,600 -1,000 Descending Washington Center
Thu 02:18:24 PM 38.9350 -76.9369 219° Southwest 243 280 8,400 -1,024 Descending Washington Center
Thu 02:19:24 PM 38.8672 -76.9436 184° South 250 288 7,500 -1,065 Descending Washington Center
Thu 02:20:28 PM 38.7925 -76.9456 181° South 232 267 6,200 -864 Descending Washington Center
Thu 02:21:29 PM 38.7339 -76.9428 178° South 221 254 5,700 -774 Descending Washington Center
Thu 02:22:32 PM 38.6728 -76.9361 175° South 220 253 4,600 -803 Descending Washington Center
Thu 02:23:36 PM 38.6158 -76.9294 175° South 215 247 4,000 -288 Descending Washington Center
Thu 02:24:37 PM 38.5622 -76.9239 175° South 204 235 4,000 -393 Level Washington Center
Thu 02:25:38 PM 38.5283 -76.9742 229° Southwest 191 220 3,200 -480 Descending Washington Center
Thu 02:26:42 PM 38.5683 -77.0125 323° Northwest 194 223 3,000 -97 Descending Washington Center
Thu 02:27:42 PM 38.6214 -77.0206 353° North 186 214 3,000  Level Washington Center
Thu 02:28:47 PM 38.6833 -77.0167 North 179 206 3,000 -381 Level Potomac TRACON
Thu 02:29:48 PM 38.7333 -77.0333 345° North 177 204 2,200 -744 Descending Potomac TRACON
Thu 02:30:48 PM 38.7667 -77.0333 360° North 172 198 1,500 -700 Descending Potomac TRACON
Thu 02:31:48 PM 38.8167 -77.0167 15° North 141 162 800 -700 Descending Potomac TRACON

Login

Don't have an account? Register now (free) for customized features, flight alerts, and more!